createdAt,value
2018-10-16T00:01:42.325Z,13.20
2018-10-16T00:04:12.883Z,12.67
2018-10-16T00:06:43.434Z,13.13
2018-10-16T00:09:13.896Z,11.63
2018-10-16T00:11:56.180Z,12.57
2018-10-16T00:14:26.237Z,10.73
2018-10-16T00:16:56.768Z,10.13
2018-10-16T00:19:27.200Z,9.53
2018-10-16T00:21:58.099Z,8.50
2018-10-16T00:24:28.824Z,8.40
2018-10-16T00:26:59.917Z,8.43
2018-10-16T00:29:30.777Z,9.13
2018-10-16T00:32:01.347Z,8.50
2018-10-16T00:34:31.536Z,9.10
2018-10-16T00:37:02.869Z,9.47
2018-10-16T00:39:33.210Z,9.43
2018-10-16T00:42:03.467Z,9.53
2018-10-16T00:44:33.611Z,10.10
2018-10-16T00:47:04.390Z,10.47
2018-10-16T00:49:34.473Z,11.00
2018-10-16T00:52:05.104Z,11.23
2018-10-16T00:54:35.264Z,10.70
2018-10-16T00:57:05.869Z,11.07
2018-10-16T00:59:36.396Z,11.63
2018-10-16T01:02:07.158Z,12.07
2018-10-16T01:04:37.613Z,10.67
2018-10-16T01:07:07.663Z,9.80
2018-10-16T01:09:38.567Z,8.83
2018-10-16T01:12:08.595Z,9.30
2018-10-16T01:14:38.523Z,11.37
2018-10-16T01:17:08.717Z,11.80
2018-10-16T01:19:38.933Z,13.73
2018-10-16T01:22:09.236Z,13.27
2018-10-16T01:24:39.417Z,13.57
2018-10-16T01:27:09.557Z,13.77
2018-10-16T01:29:39.997Z,17.77
2018-10-16T01:32:10.905Z,14.90
2018-10-16T01:34:44.066Z,17.80
2018-10-16T01:37:14.480Z,18.00
2018-10-16T01:39:44.565Z,16.50
2018-10-16T01:42:16.688Z,22.60
2018-10-16T01:44:46.720Z,23.63
2018-10-16T01:47:18.216Z,21.80
2018-10-16T01:49:48.236Z,22.03
2018-10-16T01:52:19.261Z,22.57
2018-10-16T01:54:49.956Z,22.70
2018-10-16T01:57:20.022Z,21.47
2018-10-16T01:59:50.776Z,22.17
2018-10-16T02:02:20.991Z,20.90
2018-10-16T02:04:51.634Z,20.43
2018-10-16T02:07:22.090Z,21.67
2018-10-16T02:09:53.517Z,20.20
2018-10-16T02:12:24.090Z,17.37
2018-10-16T02:14:54.316Z,15.57
2018-10-16T02:17:24.432Z,13.07
2018-10-16T02:19:55.208Z,13.00
2018-10-16T02:22:25.618Z,12.80
2018-10-16T02:24:55.726Z,14.10
2018-10-16T02:27:26.319Z,12.93
2018-10-16T02:29:56.612Z,13.57
2018-10-16T02:32:26.994Z,14.50
2018-10-16T02:34:57.256Z,13.03
2018-10-16T02:37:27.706Z,13.00
2018-10-16T02:40:00.065Z,14.97
2018-10-16T02:42:30.798Z,15.33
2018-10-16T02:45:01.085Z,14.57
2018-10-16T02:47:31.370Z,16.07
2018-10-16T02:50:02.384Z,16.77
2018-10-16T02:52:33.338Z,15.73
2018-10-16T02:55:04.222Z,15.37
2018-10-16T02:57:35.753Z,15.57
2018-10-16T03:00:06.378Z,14.60
2018-10-16T03:02:36.772Z,12.93
2018-10-16T03:05:07.241Z,15.80
2018-10-16T03:07:37.835Z,14.47
2018-10-16T03:10:08.658Z,14.60
2018-10-16T03:12:38.986Z,14.13
2018-10-16T03:15:12.373Z,13.87
2018-10-16T03:17:43.348Z,16.97
2018-10-16T03:20:14.826Z,16.57
2018-10-16T03:22:45.033Z,18.23
2018-10-16T03:25:15.227Z,20.97
2018-10-16T03:27:45.313Z,21.80
2018-10-16T03:30:16.457Z,28.47
2018-10-16T03:32:47.488Z,28.20
2018-10-16T03:35:18.263Z,33.00
2018-10-16T03:37:48.411Z,32.83
2018-10-16T03:40:20.119Z,33.70
2018-10-16T03:42:51.154Z,35.50
2018-10-16T03:45:21.410Z,33.07
2018-10-16T03:47:52.217Z,31.50
2018-10-16T03:50:22.243Z,33.00
2018-10-16T03:52:52.331Z,33.67
2018-10-16T03:55:23.219Z,33.63
2018-10-16T03:57:53.473Z,34.60
2018-10-16T04:00:24.572Z,31.03
2018-10-16T04:02:54.845Z,32.30
2018-10-16T04:05:25.377Z,32.83
2018-10-16T04:07:55.702Z,34.10
2018-10-16T04:10:25.924Z,35.73
2018-10-16T04:12:55.984Z,31.93
2018-10-16T04:15:26.178Z,30.87
2018-10-16T04:17:56.606Z,30.60
2018-10-16T04:20:27.706Z,30.43
2018-10-16T04:22:58.061Z,29.93
2018-10-16T04:25:28.173Z,30.70
2018-10-16T04:27:58.860Z,29.53
2018-10-16T04:30:30.351Z,32.23
2018-10-16T04:33:00.641Z,31.20
2018-10-16T04:35:30.713Z,31.83
2018-10-16T04:38:01.692Z,31.90
2018-10-16T04:40:31.977Z,32.70
2018-10-16T04:43:02.472Z,31.97
2018-10-16T04:45:32.778Z,34.70
2018-10-16T04:48:03.162Z,36.10
2018-10-16T04:50:33.492Z,36.90
2018-10-16T04:53:03.768Z,34.43
2018-10-16T04:55:34.471Z,34.00
2018-10-16T04:58:06.215Z,32.90
2018-10-16T05:00:36.445Z,32.07
2018-10-16T05:03:06.887Z,31.33
2018-10-16T05:05:36.885Z,31.57
2018-10-16T05:08:07.940Z,30.27
2018-10-16T05:10:38.765Z,27.67
2018-10-16T05:13:09.559Z,27.23
2018-10-16T05:15:39.720Z,27.23
2018-10-16T05:18:10.251Z,27.83
2018-10-16T05:20:40.733Z,27.87
2018-10-16T05:23:10.989Z,28.57
2018-10-16T05:25:41.994Z,26.70
2018-10-16T05:28:12.681Z,25.37
2018-10-16T05:30:43.121Z,25.97
2018-10-16T05:33:13.209Z,29.13
2018-10-16T05:35:44.461Z,27.13
2018-10-16T05:38:14.638Z,27.83
2018-10-16T05:40:44.652Z,27.10
2018-10-16T05:43:14.839Z,25.87
2018-10-16T05:45:46.311Z,28.37
2018-10-16T05:48:16.922Z,28.30
2018-10-16T05:50:47.109Z,28.23
2018-10-16T05:53:17.155Z,27.93
2018-10-16T05:55:49.811Z,27.47
2018-10-16T05:58:20.676Z,25.67
2018-10-16T06:00:51.018Z,26.23
2018-10-16T06:03:21.244Z,25.70
2018-10-16T06:05:52.389Z,26.67
2018-10-16T06:08:22.720Z,29.00
2018-10-16T06:10:54.167Z,29.27
2018-10-16T06:13:24.561Z,27.87
2018-10-16T06:15:56.072Z,27.73
2018-10-16T06:18:26.635Z,29.20
2018-10-16T06:20:56.906Z,28.93
2018-10-16T06:23:33.461Z,31.83
2018-10-16T06:26:03.840Z,31.70
2018-10-16T06:28:34.139Z,31.57
2018-10-16T06:31:05.604Z,30.93
2018-10-16T06:33:36.910Z,29.40
2018-10-16T06:36:07.907Z,30.70
2018-10-16T06:38:39.167Z,31.47
2018-10-16T06:41:10.078Z,30.93
2018-10-16T06:43:40.385Z,29.90
2018-10-16T06:46:11.134Z,31.90
2018-10-16T06:48:42.640Z,32.57
2018-10-16T06:51:13.459Z,32.70
2018-10-16T06:53:44.746Z,32.20
2018-10-16T06:56:16.144Z,32.50
2018-10-16T06:58:46.585Z,32.53
2018-10-16T07:01:17.484Z,33.13
2018-10-16T07:03:48.772Z,33.23
2018-10-16T07:06:19.655Z,32.93
2018-10-16T07:08:49.818Z,33.23
2018-10-16T07:11:21.764Z,33.17
2018-10-16T07:13:52.046Z,31.00
2018-10-16T07:16:23.070Z,30.10
2018-10-16T07:18:53.378Z,27.60
2018-10-16T07:21:23.563Z,27.57
2018-10-16T07:23:54.106Z,28.60
2018-10-16T07:26:24.934Z,27.50
2018-10-16T07:28:55.484Z,25.90
2018-10-16T07:31:25.916Z,25.13
2018-10-16T07:33:57.314Z,23.83
2018-10-16T07:36:27.600Z,22.63
2018-10-16T07:38:57.967Z,22.33
2018-10-16T07:41:28.248Z,21.27
2018-10-16T07:43:58.676Z,21.03
2018-10-16T07:46:29.025Z,19.87
2018-10-16T07:49:00.157Z,20.03
2018-10-16T07:51:31.368Z,19.63
2018-10-16T07:54:03.364Z,18.47
2018-10-16T07:56:34.383Z,18.23
2018-10-16T07:59:05.761Z,17.60
2018-10-16T08:01:37.480Z,16.67
2018-10-16T08:04:08.919Z,17.63
2018-10-16T08:06:40.763Z,17.13
2018-10-16T08:09:13.859Z,15.87
2018-10-16T08:11:47.056Z,15.13
2018-10-16T08:14:18.596Z,15.67
2018-10-16T08:16:50.381Z,15.97
2018-10-16T08:19:20.854Z,14.37
2018-10-16T08:21:51.267Z,12.60
2018-10-16T08:24:22.308Z,14.07
2018-10-16T08:26:52.762Z,13.33
2018-10-16T08:29:23.950Z,13.17
2018-10-16T08:31:54.626Z,13.03
2018-10-16T08:34:25.659Z,12.67
2018-10-16T08:36:57.322Z,12.23
2018-10-16T08:39:30.069Z,11.73
2018-10-16T08:42:40.636Z,12.27
2018-10-16T08:45:22.415Z,11.50
2018-10-16T08:48:03.980Z,13.23
2018-10-16T08:50:47.105Z,12.57
2018-10-16T08:53:17.730Z,11.93
2018-10-16T08:55:48.069Z,12.27
2018-10-16T08:58:19.735Z,12.03
2018-10-16T09:00:50.648Z,11.93
2018-10-16T09:03:21.061Z,13.03
2018-10-16T09:05:51.775Z,12.47
2018-10-16T09:08:22.550Z,12.30
2018-10-16T09:10:54.888Z,13.13
2018-10-16T09:13:25.498Z,12.40
2018-10-16T09:15:57.025Z,12.67
2018-10-16T09:18:27.550Z,12.10
2018-10-16T09:20:58.240Z,12.70
2018-10-16T09:23:28.736Z,13.50
2018-10-16T09:25:59.095Z,12.90
2018-10-16T09:28:29.616Z,13.63
2018-10-16T09:31:00.487Z,13.27
2018-10-16T09:33:30.954Z,13.53
2018-10-16T09:36:02.170Z,14.23
2018-10-16T09:38:33.195Z,14.53
2018-10-16T09:41:03.528Z,14.67
2018-10-16T09:43:33.932Z,14.70
2018-10-16T09:46:04.820Z,15.90
2018-10-16T09:48:36.153Z,15.23
2018-10-16T09:51:06.524Z,15.57
2018-10-16T09:53:37.849Z,15.53
2018-10-16T09:56:09.751Z,15.43
2018-10-16T09:58:41.304Z,14.10
2018-10-16T10:01:16.926Z,14.07
2018-10-16T10:03:47.579Z,12.93
2018-10-16T10:06:18.100Z,11.53
2018-10-16T10:08:49.222Z,11.83
2018-10-16T10:11:19.445Z,12.63
2018-10-16T10:13:50.273Z,9.07
2018-10-16T10:16:21.453Z,8.70
2018-10-16T10:18:51.895Z,8.67
2018-10-16T10:21:23.216Z,9.87
2018-10-16T10:23:53.940Z,9.43
2018-10-16T10:26:25.731Z,7.80
2018-10-16T10:28:56.495Z,9.23
2018-10-16T10:31:27.407Z,8.80
2018-10-16T10:33:59.191Z,6.50
2018-10-16T10:36:30.162Z,7.20
2018-10-16T10:39:00.577Z,7.73
2018-10-16T10:41:32.470Z,7.63
2018-10-16T10:44:02.862Z,6.80
2018-10-16T10:46:32.994Z,7.37
2018-10-16T10:49:04.919Z,7.07
2018-10-16T10:51:35.490Z,6.70
2018-10-16T10:54:06.375Z,7.00
2018-10-16T10:56:37.514Z,6.40
2018-10-16T10:59:08.438Z,6.30
2018-10-16T11:01:38.743Z,6.20
2018-10-16T11:04:09.043Z,5.40
2018-10-16T11:06:39.232Z,6.20
2018-10-16T11:09:11.948Z,5.40
2018-10-16T11:11:46.450Z,5.03
2018-10-16T11:14:19.375Z,5.57
2018-10-16T11:16:50.375Z,4.90
2018-10-16T11:19:21.182Z,5.73
2018-10-16T11:21:52.013Z,5.30
2018-10-16T11:24:33.410Z,5.57
2018-10-16T11:27:03.863Z,5.13
2018-10-16T11:32:21.448Z,5.67
2018-10-16T11:35:01.086Z,5.03
2018-10-16T11:37:31.458Z,4.93
2018-10-16T11:40:02.621Z,5.50
2018-10-16T11:42:34.503Z,5.20
2018-10-16T11:45:05.361Z,5.13
2018-10-16T11:47:35.942Z,5.63
2018-10-16T11:50:07.171Z,5.17
2018-10-16T11:52:37.709Z,4.93
2018-10-16T11:55:11.549Z,5.00
2018-10-16T11:57:41.929Z,5.07
2018-10-16T12:00:17.077Z,4.87
2018-10-16T12:02:48.701Z,4.90
2018-10-16T12:05:19.397Z,4.80
2018-10-16T12:07:50.586Z,5.30
2018-10-16T12:10:24.211Z,4.67
2018-10-16T12:12:54.439Z,5.07
2018-10-16T12:15:25.424Z,4.60
2018-10-16T12:18:14.941Z,4.80
2018-10-16T12:20:49.866Z,4.63
2018-10-16T12:23:20.977Z,4.43
2018-10-16T12:25:51.098Z,5.03
2018-10-16T12:28:22.203Z,5.00
2018-10-16T12:30:53.418Z,4.77
2018-10-16T12:33:23.560Z,5.23
2018-10-16T12:35:55.564Z,4.90
2018-10-16T12:38:26.603Z,5.03
2018-10-16T12:40:57.277Z,4.83
2018-10-16T12:43:28.073Z,4.60
2018-10-16T12:45:58.182Z,4.30
2018-10-16T12:48:28.997Z,4.90
2018-10-16T12:50:59.422Z,4.20
2018-10-16T12:53:30.073Z,4.93
2018-10-16T12:56:01.004Z,5.13
2018-10-16T12:58:31.713Z,4.27
2018-10-16T13:01:02.254Z,4.27
2018-10-16T13:03:33.421Z,4.63
2018-10-16T13:06:04.981Z,4.60
2018-10-16T13:08:35.776Z,4.50
2018-10-16T13:11:07.128Z,4.67
2018-10-16T13:13:38.539Z,4.63
2018-10-16T13:16:09.543Z,4.33
2018-10-16T13:18:40.470Z,4.90
2018-10-16T13:21:10.843Z,5.17
2018-10-16T13:23:41.433Z,5.00
2018-10-16T13:26:12.148Z,4.33
2018-10-16T13:28:43.114Z,4.53
2018-10-16T13:31:13.601Z,5.00
2018-10-16T13:33:45.652Z,4.60
2018-10-16T13:36:16.758Z,5.47
2018-10-16T13:38:47.217Z,5.28
2018-10-16T13:41:17.837Z,5.30
2018-10-16T13:43:48.426Z,5.27
2018-10-16T13:46:19.398Z,4.77
2018-10-16T13:48:49.599Z,5.00
2018-10-16T13:51:20.945Z,5.90
2018-10-16T13:53:51.016Z,6.30
2018-10-16T13:56:21.284Z,6.00
2018-10-16T13:58:52.051Z,5.40
2018-10-16T14:01:24.231Z,5.43
2018-10-16T14:03:55.254Z,5.20
2018-10-16T14:06:25.705Z,5.47
2018-10-16T14:08:56.139Z,5.40
2018-10-16T14:11:27.189Z,5.20
2018-10-16T14:13:58.593Z,5.50
2018-10-16T14:16:29.604Z,5.27
2018-10-16T14:19:00.612Z,5.13
2018-10-16T14:21:31.966Z,5.30
2018-10-16T14:24:02.527Z,5.53
2018-10-16T14:26:33.169Z,4.93
2018-10-16T14:29:03.541Z,5.33
2018-10-16T14:31:34.201Z,4.90
2018-10-16T14:34:04.749Z,5.10
2018-10-16T14:36:35.021Z,5.13
2018-10-16T14:39:08.567Z,5.30
2018-10-16T14:41:39.108Z,5.73
2018-10-16T14:44:10.028Z,4.73
2018-10-16T14:46:40.455Z,5.90
2018-10-16T14:49:11.097Z,5.10
2018-10-16T14:51:42.025Z,5.17
2018-10-16T14:54:12.514Z,5.23
2018-10-16T14:56:42.494Z,5.50
2018-10-16T14:59:12.897Z,5.57
2018-10-16T15:03:25.348Z,5.00
2018-10-16T15:05:55.624Z,4.97
2018-10-16T15:08:26.884Z,5.57
2018-10-16T15:10:57.417Z,6.00
2018-10-16T15:13:29.001Z,4.93
2018-10-16T15:15:59.516Z,5.37
2018-10-16T15:18:29.802Z,5.83
2018-10-16T15:21:00.268Z,5.40
2018-10-16T15:23:31.327Z,5.33
2018-10-16T15:26:02.259Z,5.70
2018-10-16T15:28:33.396Z,5.30
2018-10-16T15:31:04.980Z,5.70
2018-10-16T15:33:36.296Z,5.57
2018-10-16T15:36:06.767Z,6.00
2018-10-16T15:38:37.791Z,5.60
2018-10-16T15:41:08.866Z,5.00
2018-10-16T15:43:39.790Z,5.27
2018-10-16T15:46:10.466Z,5.90
2018-10-16T15:48:40.978Z,5.33
2018-10-16T15:51:11.694Z,5.90
2018-10-16T15:53:43.330Z,5.47
2018-10-16T15:56:14.367Z,5.30
2018-10-16T15:58:44.760Z,5.43
2018-10-16T16:01:15.204Z,5.83
2018-10-16T16:03:45.613Z,5.20
2018-10-16T16:06:16.926Z,5.20
2018-10-16T16:08:47.805Z,5.13
2018-10-16T16:11:18.163Z,5.20
2018-10-16T16:13:49.094Z,5.90
2018-10-16T16:16:19.605Z,5.27
2018-10-16T16:18:50.443Z,5.23
2018-10-16T16:21:21.623Z,5.03
2018-10-16T16:23:51.809Z,5.10
2018-10-16T16:26:22.356Z,6.10
2018-10-16T16:28:52.805Z,6.17
2018-10-16T16:31:24.835Z,6.23
2018-10-16T16:33:56.880Z,6.10
2018-10-16T16:36:27.268Z,5.17
2018-10-16T16:38:58.115Z,5.57
2018-10-16T16:41:29.267Z,5.90
2018-10-16T16:44:01.515Z,6.27
2018-10-16T16:46:33.016Z,6.40
2018-10-16T16:49:03.154Z,6.63
2018-10-16T16:51:35.409Z,6.63
2018-10-16T16:54:06.067Z,7.03
2018-10-16T16:56:37.569Z,6.43
2018-10-16T16:59:09.196Z,6.93
2018-10-16T17:01:39.703Z,6.90
2018-10-16T17:04:10.821Z,7.03
2018-10-16T17:06:41.455Z,6.73
2018-10-16T17:09:12.582Z,7.40
2018-10-16T17:11:42.768Z,7.20
2018-10-16T17:14:13.211Z,6.93
2018-10-16T17:16:43.528Z,6.80
2018-10-16T17:19:14.473Z,7.47
2018-10-16T17:21:45.897Z,8.03
2018-10-16T17:24:17.280Z,8.47
2018-10-16T17:26:48.456Z,7.03
2018-10-16T17:29:18.689Z,8.37
2018-10-16T17:31:48.989Z,13.23
2018-10-16T17:34:19.664Z,12.27
2018-10-16T17:36:51.390Z,12.90
2018-10-16T17:39:21.844Z,12.73
2018-10-16T17:41:52.747Z,14.70
2018-10-16T17:44:24.519Z,14.63
2018-10-16T17:46:54.892Z,14.93
2018-10-16T17:49:25.182Z,13.60
2018-10-16T17:52:17.573Z,11.60
2018-10-16T17:55:07.683Z,10.90
2018-10-16T17:57:42.681Z,9.80
2018-10-16T18:00:16.304Z,9.07
2018-10-16T18:02:47.592Z,8.53
2018-10-16T18:05:17.904Z,8.77
2018-10-16T18:07:49.368Z,9.47
2018-10-16T18:10:19.700Z,9.47
2018-10-16T18:12:50.205Z,8.43
2018-10-16T18:15:20.450Z,9.37
2018-10-16T18:17:51.013Z,9.63
2018-10-16T18:20:21.460Z,9.80
2018-10-16T18:22:51.624Z,11.00
2018-10-16T18:25:21.749Z,11.23
2018-10-16T18:27:54.210Z,11.40
2018-10-16T18:30:24.936Z,11.33
2018-10-16T18:32:55.167Z,11.60
2018-10-16T18:35:25.596Z,11.83
2018-10-16T18:37:56.000Z,11.93
2018-10-16T18:40:26.421Z,11.57
2018-10-16T18:42:56.568Z,13.97
2018-10-16T18:45:27.005Z,13.60
2018-10-16T18:47:57.413Z,13.57
2018-10-16T18:50:27.545Z,12.63
2018-10-16T18:52:58.205Z,12.53
2018-10-16T18:55:28.424Z,13.80
2018-10-16T18:57:58.679Z,12.90
2018-10-16T19:00:28.909Z,12.97
2018-10-16T19:02:59.082Z,11.77
2018-10-16T19:05:29.469Z,12.03
2018-10-16T19:07:59.746Z,12.27
2018-10-16T19:10:30.874Z,12.13
2018-10-16T19:13:02.430Z,12.43
2018-10-16T19:15:33.234Z,13.00
2018-10-16T19:18:04.510Z,14.07
2018-10-16T19:20:34.988Z,14.17
2018-10-16T19:23:05.891Z,13.80
2018-10-16T19:25:36.215Z,14.47
2018-10-16T19:28:07.175Z,13.07
2018-10-16T19:30:38.354Z,13.70
2018-10-16T19:33:08.702Z,13.57
2018-10-16T19:35:39.516Z,12.70
2018-10-16T19:38:10.208Z,13.23
2018-10-16T19:40:40.540Z,12.90
2018-10-16T19:43:10.966Z,13.13
2018-10-16T19:45:42.409Z,13.13
2018-10-16T19:48:14.020Z,13.43
2018-10-16T19:50:44.766Z,14.93
2018-10-16T19:53:15.890Z,13.60
2018-10-16T19:55:47.027Z,14.10
2018-10-16T19:58:17.037Z,12.80
2018-10-16T20:00:48.266Z,13.57
2018-10-16T20:03:18.773Z,12.97
2018-10-16T20:05:49.012Z,13.30
2018-10-16T20:08:19.698Z,13.90
2018-10-16T20:10:49.896Z,14.37
2018-10-16T20:13:20.260Z,14.60
2018-10-16T20:15:51.571Z,15.27
2018-10-16T20:18:21.895Z,14.77
2018-10-16T20:20:53.760Z,15.63
2018-10-16T20:23:24.057Z,14.87
2018-10-16T20:25:54.141Z,14.97
2018-10-16T20:28:25.091Z,16.03
2018-10-16T20:30:55.444Z,16.43
2018-10-16T20:33:25.848Z,15.30
2018-10-16T20:35:56.285Z,16.23
2018-10-16T20:38:26.724Z,15.73
2018-10-16T20:40:56.923Z,15.30
2018-10-16T20:43:27.455Z,16.13
2018-10-16T20:45:57.765Z,16.33
2018-10-16T20:48:28.203Z,15.90
2018-10-16T20:50:58.763Z,16.40
2018-10-16T20:53:30.633Z,16.20
2018-10-16T20:56:00.677Z,16.17
2018-10-16T20:58:31.259Z,15.87
2018-10-16T21:01:02.055Z,16.17
2018-10-16T21:03:32.556Z,16.33
2018-10-16T21:06:03.374Z,15.77
2018-10-16T21:08:33.161Z,17.27
2018-10-16T21:11:03.940Z,16.63
2018-10-16T21:13:34.086Z,16.80
2018-10-16T21:16:04.320Z,18.07
2018-10-16T21:18:34.602Z,19.63
2018-10-16T21:21:05.692Z,20.00
2018-10-16T21:23:35.990Z,20.83
2018-10-16T21:26:06.722Z,20.03
2018-10-16T21:28:36.954Z,21.07
2018-10-16T21:31:07.805Z,21.27
2018-10-16T21:33:38.820Z,21.10
2018-10-16T21:36:09.764Z,21.23
2018-10-16T21:38:40.288Z,20.50
2018-10-16T21:41:10.430Z,20.87
2018-10-16T21:43:40.371Z,21.17
2018-10-16T21:46:10.773Z,22.70
2018-10-16T21:48:41.290Z,22.83
2018-10-16T21:51:12.911Z,24.67
2018-10-16T21:53:43.860Z,24.53
2018-10-16T21:56:14.230Z,25.47
2018-10-16T21:58:44.630Z,26.87
2018-10-16T22:01:14.808Z,27.90
2018-10-16T22:03:44.926Z,28.93
2018-10-16T22:06:15.172Z,29.00
2018-10-16T22:08:46.102Z,29.23
2018-10-16T22:11:16.069Z,30.10
2018-10-16T22:13:46.392Z,30.17
2018-10-16T22:16:17.395Z,30.97
2018-10-16T22:18:47.976Z,33.80
2018-10-16T22:21:19.577Z,33.27
2018-10-16T22:23:49.955Z,33.37
2018-10-16T22:26:20.263Z,33.07
2018-10-16T22:28:50.362Z,30.50
2018-10-16T22:31:20.836Z,32.97
2018-10-16T22:33:51.093Z,32.57
2018-10-16T22:36:21.152Z,33.00
2018-10-16T22:38:51.911Z,33.67
2018-10-16T22:41:22.271Z,33.00
2018-10-16T22:43:53.092Z,32.53
2018-10-16T22:46:23.408Z,32.10
2018-10-16T22:48:54.277Z,32.50
2018-10-16T22:51:25.091Z,34.83
2018-10-16T22:53:55.557Z,35.07
2018-10-16T22:56:27.088Z,34.77
2018-10-16T22:58:58.283Z,35.43
2018-10-16T23:01:28.533Z,35.73
2018-10-16T23:03:58.854Z,34.27
2018-10-16T23:06:29.158Z,36.10
2018-10-16T23:08:59.333Z,33.90
2018-10-16T23:11:29.734Z,34.30
2018-10-16T23:13:59.752Z,35.70
2018-10-16T23:16:30.535Z,36.23
2018-10-16T23:19:00.783Z,37.70
2018-10-16T23:21:31.104Z,36.70
2018-10-16T23:24:01.595Z,39.33
2018-10-16T23:26:32.412Z,42.63
2018-10-16T23:29:02.791Z,38.87
2018-10-16T23:31:33.680Z,39.60
2018-10-16T23:34:03.980Z,39.57
2018-10-16T23:36:34.118Z,42.43
2018-10-16T23:39:06.770Z,41.17
2018-10-16T23:41:37.409Z,41.13
2018-10-16T23:44:08.378Z,41.30
2018-10-16T23:46:38.854Z,40.27
2018-10-16T23:49:10.059Z,39.53
2018-10-16T23:51:40.252Z,39.43
2018-10-16T23:54:11.521Z,37.00
2018-10-16T23:56:43.095Z,37.63
2018-10-16T23:59:13.294Z,34.97
